createdAt,value
2019-02-15T00:01:35.620Z,9.43
2019-02-15T00:04:06.017Z,9.80
2019-02-15T00:06:36.854Z,11.50
2019-02-15T00:09:07.144Z,10.80
2019-02-15T00:11:37.718Z,13.13
2019-02-15T00:14:08.237Z,13.03
2019-02-15T00:16:38.525Z,11.90
2019-02-15T00:19:13.642Z,13.27
2019-02-15T00:21:44.052Z,16.77
2019-02-15T00:24:14.348Z,9.43
2019-02-15T00:26:44.792Z,11.13
2019-02-15T00:29:15.205Z,10.77
2019-02-15T00:31:45.545Z,12.20
2019-02-15T00:34:15.768Z,10.43
2019-02-15T00:36:45.980Z,11.70
2019-02-15T00:39:16.392Z,12.73
2019-02-15T00:41:46.601Z,14.20
2019-02-15T00:44:17.060Z,13.40
2019-02-15T00:46:54.794Z,12.10
2019-02-15T00:49:26.721Z,9.27
2019-02-15T00:52:01.469Z,14.63
2019-02-15T00:54:39.341Z,10.23
2019-02-15T00:57:23.501Z,13.43
2019-02-15T00:59:58.417Z,13.70
2019-02-15T01:02:36.125Z,9.63
2019-02-15T01:05:08.137Z,15.37
2019-02-15T01:07:42.860Z,14.03
2019-02-15T01:10:20.737Z,11.90
2019-02-15T01:12:55.709Z,15.60
2019-02-15T01:15:26.126Z,11.60
2019-02-15T01:17:56.430Z,15.13
2019-02-15T01:20:26.788Z,12.57
2019-02-15T01:22:57.253Z,12.97
2019-02-15T01:25:29.176Z,12.27
2019-02-15T01:28:01.089Z,10.63
2019-02-15T01:30:49.261Z,10.10
2019-02-15T01:33:24.541Z,14.33
2019-02-15T01:36:11.381Z,12.30
2019-02-15T01:38:48.989Z,12.90
2019-02-15T01:41:21.083Z,13.17
2019-02-15T01:43:59.044Z,13.73
2019-02-15T01:46:30.960Z,12.90
2019-02-15T01:49:01.180Z,15.30
2019-02-15T01:51:31.553Z,12.43
2019-02-15T01:54:01.847Z,13.13
2019-02-15T01:56:32.046Z,10.00
2019-02-15T01:59:02.270Z,11.17
2019-02-15T02:01:32.709Z,14.93
2019-02-15T02:04:03.029Z,16.87
2019-02-15T02:06:33.502Z,9.20
2019-02-15T02:09:04.789Z,14.87
2019-02-15T02:11:35.152Z,14.63
2019-02-15T02:14:05.428Z,14.77
2019-02-15T02:16:35.697Z,11.57
2019-02-15T02:19:06.061Z,10.93
2019-02-15T02:21:36.441Z,10.37
2019-02-15T02:24:06.902Z,14.17
2019-02-15T02:26:37.517Z,15.67
2019-02-15T02:29:07.876Z,13.57
2019-02-15T02:31:38.269Z,13.13
2019-02-15T02:34:08.621Z,13.20
2019-02-15T02:36:50.199Z,13.80
2019-02-15T02:39:20.632Z,13.13
2019-02-15T02:41:51.076Z,14.23
2019-02-15T02:44:21.344Z,14.57
2019-02-15T02:46:51.621Z,13.07
2019-02-15T02:49:22.014Z,14.47
2019-02-15T02:51:52.548Z,16.07
2019-02-15T02:54:22.828Z,18.87
2019-02-15T02:56:53.117Z,11.00
2019-02-15T02:59:23.661Z,11.73
2019-02-15T03:01:54.045Z,11.80
2019-02-15T03:04:24.466Z,11.37
2019-02-15T03:06:54.826Z,14.93
2019-02-15T03:09:25.300Z,15.53
2019-02-15T03:11:55.677Z,15.13
2019-02-15T03:14:26.069Z,11.93
2019-02-15T03:16:56.463Z,12.57
2019-02-15T03:19:26.949Z,12.80
2019-02-15T03:21:57.169Z,17.17
2019-02-15T03:24:27.470Z,13.67
2019-02-15T03:26:57.743Z,15.30
2019-02-15T03:29:28.036Z,13.53
2019-02-15T03:31:58.315Z,12.80
2019-02-15T03:34:28.606Z,16.47
2019-02-15T03:37:06.582Z,13.53
2019-02-15T03:39:38.517Z,13.57
2019-02-15T03:42:10.528Z,10.13
2019-02-15T03:44:40.808Z,11.37
2019-02-15T03:47:11.724Z,10.53
2019-02-15T03:49:42.105Z,12.40
2019-02-15T03:52:12.474Z,11.57
2019-02-15T03:54:42.698Z,14.93
2019-02-15T03:57:13.071Z,14.10
2019-02-15T03:59:43.517Z,17.60
2019-02-15T04:02:13.811Z,15.20
2019-02-15T04:04:44.084Z,14.03
2019-02-15T04:07:14.574Z,12.40
2019-02-15T04:09:45.489Z,12.30
2019-02-15T04:12:15.883Z,11.27
2019-02-15T04:14:46.125Z,16.47
2019-02-15T04:17:16.489Z,14.07
2019-02-15T04:19:46.761Z,14.57
2019-02-15T04:22:17.053Z,13.03
2019-02-15T04:24:47.349Z,13.23
2019-02-15T04:27:17.728Z,15.37
2019-02-15T04:29:48.130Z,14.47
2019-02-15T04:32:18.478Z,14.30
2019-02-15T04:34:48.637Z,14.43
2019-02-15T04:37:18.852Z,16.90
2019-02-15T04:39:49.179Z,12.33
2019-02-15T04:42:19.652Z,14.27
2019-02-15T04:44:50.082Z,10.17
2019-02-15T04:47:20.649Z,14.63
2019-02-15T04:49:50.869Z,16.03
2019-02-15T04:52:21.265Z,13.20
2019-02-15T04:54:51.641Z,12.07
2019-02-15T04:57:22.034Z,16.63
2019-02-15T04:59:52.415Z,11.03
2019-02-15T05:02:22.869Z,10.27
2019-02-15T05:04:53.070Z,10.87
2019-02-15T05:07:23.477Z,13.87
2019-02-15T05:09:53.755Z,13.73
2019-02-15T05:12:24.000Z,9.47
2019-02-15T05:15:12.205Z,14.43
2019-02-15T05:17:50.496Z,12.50
2019-02-15T05:20:22.426Z,11.30
2019-02-15T05:22:52.799Z,8.27
2019-02-15T05:25:23.290Z,15.00
2019-02-15T05:27:53.764Z,12.73
2019-02-15T05:30:24.058Z,13.10
2019-02-15T05:32:54.265Z,10.90
2019-02-15T05:35:24.593Z,12.53
2019-02-15T05:37:54.841Z,14.03
2019-02-15T05:40:25.129Z,11.73
2019-02-15T05:42:55.535Z,12.63
2019-02-15T05:45:25.760Z,14.13
2019-02-15T05:47:56.166Z,10.77
2019-02-15T05:50:26.557Z,10.50
2019-02-15T05:52:56.777Z,15.33
2019-02-15T05:55:27.496Z,9.33
2019-02-15T05:57:57.952Z,11.17
2019-02-15T06:00:36.803Z,11.83
2019-02-15T06:03:00.214Z,10.27
2019-02-15T06:05:30.551Z,11.43
2019-02-15T06:08:00.869Z,10.53
2019-02-15T06:10:31.001Z,9.13
2019-02-15T06:13:01.321Z,9.17
2019-02-15T06:15:31.596Z,10.80
2019-02-15T06:18:02.051Z,11.53
2019-02-15T06:20:32.329Z,9.33
2019-02-15T06:23:02.637Z,10.33
2019-02-15T06:25:32.914Z,14.13
2019-02-15T06:28:03.294Z,9.33
2019-02-15T06:30:33.509Z,6.53
2019-02-15T06:33:03.808Z,9.27
2019-02-15T06:35:34.302Z,10.83
2019-02-15T06:38:04.833Z,13.47
2019-02-15T06:40:35.484Z,13.47
2019-02-15T06:43:05.713Z,8.97
2019-02-15T06:45:36.023Z,8.37
2019-02-15T06:48:06.313Z,10.73
2019-02-15T06:50:36.529Z,7.17
2019-02-15T06:53:06.749Z,11.07
2019-02-15T06:55:37.120Z,7.63
2019-02-15T06:58:07.536Z,7.97
2019-02-15T07:00:42.248Z,8.47
2019-02-15T07:03:14.097Z,9.37
2019-02-15T07:05:44.369Z,7.50
2019-02-15T07:08:14.829Z,9.43
2019-02-15T07:10:45.121Z,7.93
2019-02-15T07:13:15.333Z,6.47
2019-02-15T07:15:45.633Z,8.10
2019-02-15T07:18:15.841Z,4.37
2019-02-15T07:20:46.158Z,5.60
2019-02-15T07:23:16.432Z,9.93
2019-02-15T07:25:46.896Z,6.30
2019-02-15T07:28:17.376Z,5.83
2019-02-15T07:30:47.657Z,8.43
2019-02-15T07:33:18.034Z,5.93
2019-02-15T07:35:48.337Z,6.33
2019-02-15T07:38:18.536Z,6.77
2019-02-15T07:40:48.905Z,5.03
2019-02-15T07:43:19.117Z,4.27
2019-02-15T07:45:49.461Z,6.10
2019-02-15T07:48:19.754Z,6.23
2019-02-15T07:50:50.035Z,6.93
2019-02-15T07:53:20.404Z,6.33
2019-02-15T07:55:50.822Z,6.07
2019-02-15T07:58:20.946Z,5.23
2019-02-15T08:00:51.309Z,5.47
2019-02-15T08:03:21.576Z,4.60
2019-02-15T08:05:51.833Z,6.13
2019-02-15T08:08:22.312Z,3.87
2019-02-15T08:10:52.539Z,5.57
2019-02-15T08:13:22.938Z,5.00
2019-02-15T08:15:53.209Z,5.67
2019-02-15T08:18:23.428Z,4.97
2019-02-15T08:20:53.629Z,7.50
2019-02-15T08:23:24.077Z,6.60
2019-02-15T08:25:54.346Z,4.93
2019-02-15T08:28:24.649Z,5.57
2019-02-15T08:30:55.133Z,4.57
2019-02-15T08:33:25.633Z,3.93
2019-02-15T08:35:56.055Z,4.63
2019-02-15T08:38:27.600Z,5.03
2019-02-15T08:40:57.913Z,3.83
2019-02-15T08:43:28.185Z,4.33
2019-02-15T08:46:00.880Z,2.97
2019-02-15T08:48:30.332Z,3.67
2019-02-15T08:51:00.731Z,2.93
2019-02-15T08:53:31.241Z,4.07
2019-02-15T08:56:01.566Z,6.53
2019-02-15T08:58:31.837Z,2.83
2019-02-15T09:01:02.501Z,4.47
2019-02-15T09:03:32.895Z,3.47
2019-02-15T09:06:03.562Z,2.73
2019-02-15T09:08:33.850Z,5.87
2019-02-15T09:11:04.313Z,3.47
2019-02-15T09:13:34.617Z,2.93
2019-02-15T09:16:10.476Z,3.97
2019-02-15T09:18:37.009Z,2.70
2019-02-15T09:21:07.217Z,1.67
2019-02-15T09:23:37.607Z,2.50
2019-02-15T09:26:07.807Z,3.43
2019-02-15T09:28:42.569Z,2.90
2019-02-15T09:31:12.694Z,3.43
2019-02-15T09:33:42.905Z,3.33
2019-02-15T09:36:13.033Z,2.57
2019-02-15T09:38:43.309Z,2.33
2019-02-15T09:41:13.577Z,2.37
2019-02-15T09:43:43.791Z,2.70
2019-02-15T09:46:20.063Z,2.40
2019-02-15T09:48:46.081Z,2.90
2019-02-15T09:51:16.353Z,4.13
2019-02-15T09:53:46.733Z,3.13
2019-02-15T09:56:16.998Z,3.30
2019-02-15T09:58:47.277Z,1.93
2019-02-15T10:01:17.726Z,3.13
2019-02-15T10:03:48.208Z,2.83
2019-02-15T10:06:18.426Z,2.60
2019-02-15T10:08:48.909Z,1.70
2019-02-15T10:11:19.105Z,3.33
2019-02-15T10:13:49.445Z,1.97
2019-02-15T10:16:28.349Z,3.37
2019-02-15T10:18:52.032Z,1.80
2019-02-15T10:21:22.541Z,2.67
2019-02-15T10:23:52.856Z,2.17
2019-02-15T10:26:23.301Z,1.70
2019-02-15T10:28:53.653Z,1.50
2019-02-15T10:31:23.874Z,1.80
2019-02-15T10:33:54.073Z,1.80
2019-02-15T10:36:24.294Z,1.77
2019-02-15T10:38:54.640Z,2.33
2019-02-15T10:41:24.787Z,2.20
2019-02-15T10:43:54.989Z,1.67
2019-02-15T10:46:25.206Z,3.00
2019-02-15T10:48:55.575Z,2.27
2019-02-15T10:51:26.118Z,1.10
2019-02-15T10:53:56.572Z,1.43
2019-02-15T10:56:27.146Z,0.87
2019-02-15T10:58:57.418Z,1.97
2019-02-15T11:01:27.869Z,2.10
2019-02-15T11:03:58.081Z,1.97
2019-02-15T11:06:28.689Z,2.07
2019-02-15T11:08:58.902Z,1.60
2019-02-15T11:11:29.358Z,3.10
2019-02-15T11:13:59.600Z,2.20
2019-02-15T11:16:30.315Z,1.53
2019-02-15T11:19:00.593Z,2.47
2019-02-15T11:21:30.802Z,1.30
2019-02-15T11:24:01.092Z,1.30
2019-02-15T11:26:31.529Z,2.90
2019-02-15T11:29:01.998Z,2.10
2019-02-15T11:31:32.281Z,1.90
2019-02-15T11:34:02.494Z,1.90
2019-02-15T11:36:32.786Z,2.33
2019-02-15T11:39:03.433Z,1.60
2019-02-15T11:41:33.684Z,2.97
2019-02-15T11:44:03.956Z,3.00
2019-02-15T11:46:34.181Z,1.40
2019-02-15T11:49:04.545Z,1.30
2019-02-15T11:51:34.773Z,3.50
2019-02-15T11:54:05.158Z,1.97
2019-02-15T11:56:35.469Z,2.30
2019-02-15T11:59:06.106Z,3.17
2019-02-15T12:01:36.829Z,1.33
2019-02-15T12:04:07.289Z,3.40
2019-02-15T12:06:37.582Z,1.47
2019-02-15T12:09:08.048Z,1.37
2019-02-15T12:11:38.334Z,1.63
2019-02-15T12:14:08.608Z,2.70
2019-02-15T12:16:39.001Z,3.80
2019-02-15T12:19:09.297Z,2.30
2019-02-15T12:21:39.600Z,1.53
2019-02-15T12:24:09.805Z,1.00
2019-02-15T12:26:40.196Z,3.40
2019-02-15T12:29:10.597Z,2.17
2019-02-15T12:31:40.985Z,1.53
2019-02-15T12:34:11.255Z,0.80
2019-02-15T12:36:41.632Z,3.83
2019-02-15T12:39:14.294Z,1.07
2019-02-15T12:41:44.308Z,1.07
2019-02-15T12:44:14.529Z,1.17
2019-02-15T12:46:45.084Z,1.03
2019-02-15T12:49:15.499Z,1.33
2019-02-15T12:51:45.720Z,1.87
2019-02-15T12:54:16.101Z,0.73
2019-02-15T12:56:46.497Z,1.57
2019-02-15T12:59:16.805Z,1.27
2019-02-15T13:01:47.283Z,1.87
2019-02-15T13:04:17.564Z,1.00
2019-02-15T13:06:48.119Z,0.77
2019-02-15T13:09:18.317Z,2.23
2019-02-15T13:11:48.537Z,1.07
2019-02-15T13:14:18.909Z,1.47
2019-02-15T13:16:49.069Z,3.70
2019-02-15T13:19:19.529Z,1.73
2019-02-15T13:21:49.737Z,1.33
2019-02-15T13:24:20.030Z,1.13
2019-02-15T13:26:50.244Z,1.20
2019-02-15T13:29:20.462Z,2.03
2019-02-15T13:31:50.769Z,0.80
2019-02-15T13:34:21.070Z,0.93
2019-02-15T13:36:51.282Z,0.73
2019-02-15T13:39:21.565Z,1.20
2019-02-15T13:41:51.921Z,2.10
2019-02-15T13:44:22.225Z,1.60
2019-02-15T13:46:53.125Z,2.43
2019-02-15T13:49:23.261Z,1.57
2019-02-15T13:51:53.557Z,1.87
2019-02-15T13:54:23.758Z,2.23
2019-02-15T13:56:53.969Z,1.23
2019-02-15T13:59:24.341Z,1.53
2019-02-15T14:01:54.665Z,3.73
2019-02-15T14:04:25.113Z,1.50
2019-02-15T14:06:56.574Z,2.30
2019-02-15T14:09:26.930Z,2.33
2019-02-15T14:11:57.206Z,1.50
2019-02-15T14:14:27.426Z,3.17
2019-02-15T14:16:57.812Z,0.97
2019-02-15T14:19:28.101Z,1.37
2019-02-15T14:21:58.305Z,5.90
2019-02-15T14:24:28.605Z,1.83
2019-02-15T14:26:58.972Z,2.03
2019-02-15T14:29:29.193Z,3.67
2019-02-15T14:31:59.518Z,1.80
2019-02-15T14:34:29.946Z,2.87
2019-02-15T14:37:00.561Z,2.63
2019-02-15T14:39:30.877Z,2.17
2019-02-15T14:42:01.184Z,1.93
2019-02-15T14:44:31.420Z,1.77
2019-02-15T14:47:01.776Z,1.63
2019-02-15T14:49:32.057Z,2.40
2019-02-15T14:52:02.369Z,1.97
2019-02-15T14:54:32.501Z,1.33
2019-02-15T14:57:02.801Z,3.10
2019-02-15T14:59:33.021Z,2.83
2019-02-15T15:02:03.153Z,2.27
2019-02-15T15:04:33.509Z,3.20
2019-02-15T15:07:03.976Z,3.03
2019-02-15T15:09:34.521Z,2.60
2019-02-15T15:12:04.725Z,2.37
2019-02-15T15:14:35.316Z,5.30
2019-02-15T15:17:05.716Z,2.20
2019-02-15T15:19:36.197Z,1.83
2019-02-15T15:22:06.552Z,3.67
2019-02-15T15:24:36.865Z,4.27
2019-02-15T15:27:07.085Z,1.83
2019-02-15T15:29:37.386Z,2.37
2019-02-15T15:32:07.815Z,2.73
2019-02-15T15:34:38.088Z,5.57
2019-02-15T15:37:16.290Z,2.47
2019-02-15T15:39:40.837Z,3.43
2019-02-15T15:42:11.269Z,2.77
2019-02-15T15:44:41.479Z,3.40
2019-02-15T15:47:11.877Z,3.90
2019-02-15T15:49:42.172Z,4.87
2019-02-15T15:52:12.458Z,5.80
2019-02-15T15:54:42.761Z,8.37
2019-02-15T15:57:13.315Z,4.87
2019-02-15T15:59:43.813Z,3.07
2019-02-15T16:02:14.181Z,6.20
2019-02-15T16:04:44.401Z,6.10
2019-02-15T16:07:14.529Z,4.60
2019-02-15T16:09:44.901Z,4.40
2019-02-15T16:12:15.223Z,5.93
2019-02-15T16:14:45.597Z,8.73
2019-02-15T16:17:15.837Z,3.33
2019-02-15T16:19:49.353Z,4.67
2019-02-15T16:22:17.938Z,7.53
2019-02-15T16:24:48.232Z,6.40
2019-02-15T16:27:18.613Z,6.97
2019-02-15T16:29:48.820Z,4.23
2019-02-15T16:32:19.085Z,4.33
2019-02-15T16:34:49.293Z,5.47
2019-02-15T16:37:19.605Z,8.20
2019-02-15T16:39:49.824Z,5.67
2019-02-15T16:42:20.290Z,7.43
2019-02-15T16:44:50.681Z,6.00
2019-02-15T16:47:21.062Z,8.40
2019-02-15T16:49:51.444Z,6.10
2019-02-15T16:52:21.800Z,7.47
2019-02-15T16:54:52.016Z,5.73
2019-02-15T16:57:22.489Z,7.30
2019-02-15T16:59:52.729Z,6.97
2019-02-15T17:04:47.776Z,5.60
2019-02-15T17:07:18.134Z,4.20
2019-02-15T17:09:48.500Z,5.60
2019-02-15T17:12:18.984Z,5.63
2019-02-15T17:14:49.365Z,4.83
2019-02-15T17:17:19.732Z,5.27
2019-02-15T17:19:50.153Z,5.80
2019-02-15T17:22:20.455Z,6.13
2019-02-15T17:24:50.680Z,6.83
2019-02-15T17:27:21.008Z,5.80
2019-02-15T17:29:51.294Z,6.23
2019-02-15T17:32:21.517Z,7.53
2019-02-15T17:34:52.007Z,10.33
2019-02-15T17:37:22.445Z,6.70
2019-02-15T17:39:52.661Z,6.13
2019-02-15T17:42:22.944Z,8.60
2019-02-15T17:47:24.970Z,5.70
2019-02-15T17:49:55.333Z,6.27
2019-02-15T17:52:25.475Z,5.50
2019-02-15T17:54:55.700Z,11.47
2019-02-15T17:57:26.146Z,5.83
2019-02-15T17:59:56.433Z,6.00
2019-02-15T18:02:26.629Z,8.73
2019-02-15T18:04:56.837Z,6.37
2019-02-15T18:07:27.049Z,5.87
2019-02-15T18:09:57.173Z,4.97
2019-02-15T18:12:27.521Z,5.57
2019-02-15T18:14:57.917Z,5.80
2019-02-15T18:17:28.057Z,9.27
2019-02-15T18:19:58.253Z,7.43
2019-02-15T18:22:28.553Z,5.03
2019-02-15T18:24:58.836Z,7.23
2019-02-15T18:27:29.116Z,7.07
2019-02-15T18:29:59.240Z,5.67
2019-02-15T18:32:30.034Z,12.73
2019-02-15T18:35:00.442Z,6.90
2019-02-15T18:37:30.812Z,6.47
2019-02-15T18:40:01.159Z,4.20
2019-02-15T18:42:31.541Z,5.90
2019-02-15T18:45:01.804Z,6.47
2019-02-15T18:47:31.939Z,6.60
2019-02-15T18:50:02.351Z,6.07
2019-02-15T18:52:32.710Z,5.57
2019-02-15T18:55:03.040Z,9.37
2019-02-15T18:57:33.414Z,5.77
2019-02-15T19:00:05.369Z,6.57
2019-02-15T19:02:35.739Z,4.93
2019-02-15T19:05:08.889Z,5.70
2019-02-15T19:07:39.304Z,6.90
2019-02-15T19:10:12.525Z,6.53
2019-02-15T19:12:43.085Z,8.43
2019-02-15T19:15:15.326Z,5.70
2019-02-15T19:17:46.241Z,10.33
2019-02-15T19:20:17.288Z,6.40
2019-02-15T19:22:47.588Z,4.97
2019-02-15T19:25:20.217Z,6.33
2019-02-15T19:27:50.749Z,9.13
2019-02-15T19:30:27.105Z,9.77
2019-02-15T19:32:57.317Z,7.73
2019-02-15T19:35:27.587Z,7.30
2019-02-15T19:37:57.873Z,5.40
2019-02-15T19:40:28.238Z,6.20
2019-02-15T19:43:01.664Z,6.57
2019-02-15T19:45:32.020Z,6.03
2019-02-15T19:48:02.425Z,7.87
2019-02-15T19:50:32.710Z,6.17
2019-02-15T19:53:03.005Z,8.37
2019-02-15T19:55:33.492Z,7.60
2019-02-15T19:58:03.769Z,6.07
2019-02-15T20:00:35.623Z,7.80
2019-02-15T20:03:06.149Z,4.53
2019-02-15T20:05:36.461Z,8.03
2019-02-15T20:08:07.097Z,6.43
2019-02-15T20:10:37.401Z,5.83
2019-02-15T20:13:07.669Z,7.20
2019-02-15T20:15:38.197Z,7.97
2019-02-15T20:18:08.414Z,8.87
2019-02-15T20:20:38.748Z,5.43
2019-02-15T20:23:08.958Z,7.20
2019-02-15T20:25:39.229Z,6.67
2019-02-15T20:28:14.084Z,6.77
2019-02-15T20:30:41.355Z,7.03
2019-02-15T20:33:11.641Z,5.43
2019-02-15T20:35:42.025Z,5.43
2019-02-15T20:38:12.238Z,5.13
2019-02-15T20:40:42.677Z,5.90
2019-02-15T20:43:13.093Z,8.63
2019-02-15T20:45:43.479Z,6.07
2019-02-15T20:48:13.879Z,6.53
2019-02-15T20:50:44.130Z,5.97
2019-02-15T20:53:14.425Z,5.00
2019-02-15T20:55:44.620Z,5.87
2019-02-15T20:58:14.953Z,3.90
2019-02-15T21:00:45.317Z,6.70
2019-02-15T21:03:15.666Z,5.87
2019-02-15T21:05:46.030Z,5.97
2019-02-15T21:08:16.349Z,6.03
2019-02-15T21:10:54.452Z,7.27
2019-02-15T21:13:20.522Z,5.40
2019-02-15T21:15:50.518Z,4.60
2019-02-15T21:18:20.810Z,6.17
2019-02-15T21:20:51.188Z,7.57
2019-02-15T21:23:21.578Z,5.50
2019-02-15T21:25:51.949Z,5.83
2019-02-15T21:28:22.097Z,7.67
2019-02-15T21:30:52.477Z,5.90
2019-02-15T21:33:22.841Z,7.40
2019-02-15T21:35:53.198Z,3.60
2019-02-15T21:38:23.808Z,5.47
2019-02-15T21:40:54.097Z,4.67
2019-02-15T21:43:24.238Z,6.73
2019-02-15T21:45:54.763Z,6.67
2019-02-15T21:48:25.153Z,6.93
2019-02-15T21:50:55.433Z,5.00
2019-02-15T21:53:25.992Z,4.83
2019-02-15T21:55:56.177Z,7.17
2019-02-15T21:58:26.478Z,7.07
2019-02-15T22:00:56.757Z,5.10
2019-02-15T22:03:27.044Z,3.47
2019-02-15T22:05:57.444Z,5.27
2019-02-15T22:08:27.797Z,4.70
2019-02-15T22:10:58.092Z,8.43
2019-02-15T22:13:28.486Z,4.50
2019-02-15T22:15:58.681Z,5.27
2019-02-15T22:18:28.993Z,5.23
2019-02-15T22:20:59.333Z,4.93
2019-02-15T22:23:29.548Z,3.50
2019-02-15T22:25:59.756Z,6.97
2019-02-15T22:28:29.949Z,5.80
2019-02-15T22:31:00.232Z,4.63
2019-02-15T22:33:30.501Z,5.70
2019-02-15T22:36:00.696Z,4.73
2019-02-15T22:38:30.998Z,4.10
2019-02-15T22:41:04.338Z,3.57
2019-02-15T22:43:34.545Z,4.97
2019-02-15T22:46:04.824Z,4.77
2019-02-15T22:48:34.961Z,4.17
2019-02-15T22:51:05.341Z,3.57
2019-02-15T22:53:35.660Z,4.30
2019-02-15T22:56:06.013Z,5.40
2019-02-15T22:58:36.313Z,5.27
2019-02-15T23:01:09.709Z,3.97
2019-02-15T23:03:40.152Z,3.97
2019-02-15T23:06:10.529Z,4.37
2019-02-15T23:08:40.857Z,4.97
2019-02-15T23:11:11.392Z,4.93
2019-02-15T23:13:41.593Z,4.43
2019-02-15T23:16:12.188Z,3.80
2019-02-15T23:18:42.561Z,3.33
2019-02-15T23:21:12.759Z,3.57
2019-02-15T23:23:43.121Z,7.17
2019-02-15T23:26:13.757Z,3.30
2019-02-15T23:28:44.069Z,4.13
2019-02-15T23:31:14.283Z,5.20
2019-02-15T23:33:44.563Z,4.50
2019-02-15T23:36:14.846Z,8.40
2019-02-15T23:38:45.113Z,4.33
2019-02-15T23:41:15.325Z,4.70
2019-02-15T23:43:45.521Z,5.13
2019-02-15T23:46:15.744Z,5.00
2019-02-15T23:48:45.944Z,4.30
2019-02-15T23:51:16.230Z,6.30
2019-02-15T23:53:46.519Z,3.37
2019-02-15T23:56:16.808Z,5.43
2019-02-15T23:58:47.006Z,3.90
